Maria — SV7156 — position and weather

sailwx.info

Track history (hours):
 
Tides and Currents Weather Stations Pressure Air Temp Water Temp Dewpoint Dewpoint Depression Visibility Wind Speed Wind Dir Waves Ship Positions

Maria

Last reported at 2016-Feb-13 19:33 UTC. Time now 2016-Feb-14 12:45 UTC.
Position N 37°57' E 023°35'.

Length 74 m; draft 4.5 m.

Type: Ship. MMSI: 237493000.

Date/timePositionNaut miles runAvg speedWind from/ knotsBaromVisibWave heightAir tempDewpointWater temp
2016-Feb-13 19:33N 37°57' E 023°35'1 0.8
2016-Feb-13 18:33N 37°57' E 023°36'0 0.0
2016-Feb-13 17:33N 37°57' E 023°36'0 0.0
2016-Feb-13 16:33N 37°57' E 023°36'0 0.2
2016-Feb-13 15:33N 37°57' E 023°36'0 0.0
2016-Feb-13 14:33N 37°57' E 023°36'0 0.0
2016-Feb-13 13:33N 37°57' E 023°36'0 0.0
2016-Feb-13 12:33N 37°57' E 023°36'0 0.0
2016-Feb-13 11:33N 37°57' E 023°36'0 0.0
2016-Feb-13 10:33N 37°57' E 023°36'1 1.1
2016-Feb-13 09:33N 37°58' E 023°35'2 0.6
2016-Feb-13 06:33N 37°58' E 023°33'3 3.4
2016-Feb-13 05:33N 38°02' E 023°34'0 0.0
2016-Feb-13 04:33N 38°02' E 023°34'0 0.1
2016-Feb-13 03:33N 38°02' E 023°34'0 0.0
2016-Feb-13 02:33N 38°02' E 023°34'0 0.0
2016-Feb-13 01:33N 38°02' E 023°34'0 0.0
2016-Feb-13 00:34N 38°02' E 023°34'1 1.3
2016-Feb-12 23:34N 38°02' E 023°36'0 0.0
2016-Feb-12 22:33N 38°02' E 023°36'0 0.0
2016-Feb-12 21:33N 38°02' E 023°36'0 0.0
2016-Feb-12 20:34N 38°02' E 023°36'0 0.0
2016-Feb-12 19:33N 38°02' E 023°36'0 0.0
2016-Feb-12 18:33N 38°02' E 023°36'1 0.5
2016-Feb-12 17:31N 38°02' E 023°35'0 0.0
2016-Feb-12 16:33N 38°02' E 023°35'4 4.4
2016-Feb-12 15:33N 37°57' E 023°35'0 0.0
2016-Feb-12 03:03N 37°58' E 023°35'1 1.8
2016-Feb-12 02:33N 37°57' E 023°36'0 0.0
2016-Feb-12 01:33N 37°57' E 023°36'0 0.0
2016-Feb-12 00:33N 37°57' E 023°36'0 0.0
2016-Feb-11 23:33N 37°57' E 023°36'0 0.0
2016-Feb-11 22:33N 37°57' E 023°36'1 0.1
2016-Feb-11 13:14N 37°58' E 023°35'3 4.1
2016-Feb-11 12:33N 38°00' E 023°33'2 1.0
2016-Feb-11 10:08N 38°02' E 023°36'0 0.0
2016-Feb-11 09:33N 38°02' E 023°36'0 0.0
2016-Feb-11 08:33N 38°02' E 023°36'0 0.0
2016-Feb-11 07:33N 38°02' E 023°36'0 0.0
2016-Feb-11 06:33N 38°02' E 023°36'0 0.5
2016-Feb-11 05:33N 38°02' E 023°35'0 0.3
2016-Feb-11 04:33N 38°02' E 023°35'0 0.0
2016-Feb-11 03:33N 38°02' E 023°35'0 0.0
2016-Feb-11 02:33N 38°02' E 023°35'0 0.0
2016-Feb-11 01:31N 38°02' E 023°35'0 0.1
2016-Feb-11 00:33N 38°02' E 023°35'0 0.0
2016-Feb-10 23:33N 38°02' E 023°35'0 0.0
2016-Feb-10 22:33N 38°02' E 023°35'0 0.0
2016-Feb-10 21:33N 38°02' E 023°35'0 0.0
2016-Feb-10 20:33N 38°02' E 023°35'0 0.0
2016-Feb-10 19:33N 38°02' E 023°35'0 0.1
2016-Feb-10 18:33N 38°02' E 023°35'0 0.0
2016-Feb-10 17:33N 38°02' E 023°35'0 0.0
2016-Feb-10 16:33N 38°02' E 023°35'0 0.3
2016-Feb-10 15:33N 38°02' E 023°34'4 1.2
2016-Feb-10 12:15N 37°58' E 023°35'6 8.2
2016-Feb-10 11:33N 37°52' E 023°33'1 0.9
2016-Feb-10 10:33N 37°51' E 023°32'0 0.0
2016-Feb-10 09:33N 37°51' E 023°32'0 0.0
2016-Feb-10 08:33N 37°51' E 023°32'0 0.1
2016-Feb-10 07:34N 37°51' E 023°32'1 0.7
2016-Feb-10 06:33N 37°52' E 023°32'6 5.6
2016-Feb-10 05:34N 37°58' E 023°33'4 4.1
2016-Feb-10 04:33N 38°02' E 023°32'0 0.0
2016-Feb-10 03:33N 38°02' E 023°32'0 0.0
2016-Feb-10 02:33N 38°02' E 023°32'0 0.0
2016-Feb-10 01:33N 38°02' E 023°32'0 0.0
2016-Feb-10 00:34N 38°02' E 023°32'0 0.0
2016-Feb-09 23:33N 38°02' E 023°32'0 0.0
2016-Feb-09 22:34N 38°02' E 023°32'0 0.0
2016-Feb-09 21:34N 38°02' E 023°32'0 0.0
2016-Feb-09 20:33N 38°02' E 023°32'0 0.0
2016-Feb-09 19:33N 38°02' E 023°32'0 0.0
2016-Feb-09 18:33N 38°02' E 023°32'0 0.0
2016-Feb-09 17:33N 38°02' E 023°32'0 0.3
2016-Feb-09 16:33N 38°02' E 023°32'0 0.3
2016-Feb-09 15:33N 38°02' E 023°32'3 2.8
2016-Feb-09 14:34N 38°02' E 023°36'0 0.2
2016-Feb-09 13:33N 38°02' E 023°35'1 0.8
2016-Feb-09 12:33N 38°02' E 023°35'0 0.0
2016-Feb-09 11:33N 38°02' E 023°35'0 0.0
2016-Feb-09 10:33N 38°02' E 023°35'0 0.3
2016-Feb-09 09:33N 38°02' E 023°35'4 4.1
2016-Feb-09 08:33N 37°58' E 023°35'0 0.0
2016-Feb-09 07:33N 37°58' E 023°35'0 0.0
2016-Feb-07 20:25N 37°58' E 023°35'1 1.0
2016-Feb-07 19:33N 37°57' E 023°36'0 0.0
2016-Feb-07 18:33N 37°57' E 023°36'0 0.0
2016-Feb-07 17:33N 37°57' E 023°36'0 0.0
2016-Feb-07 16:33N 37°57' E 023°36'0 0.0
2016-Feb-07 15:33N 37°57' E 023°36'0 0.0
2016-Feb-07 14:33N 37°57' E 023°36'1 0.1
2016-Feb-07 06:05N 37°58' E 023°35'2 4.1
2016-Feb-07 05:33N 37°59' E 023°33'3 3.1
2016-Feb-07 04:33N 38°02' E 023°35'0 0.0
2016-Feb-07 03:33N 38°02' E 023°35'0 0.0
2016-Feb-07 02:33N 38°02' E 023°35'0 0.0
2016-Feb-07 01:33N 38°02' E 023°35'0 0.0
2016-Feb-07 00:34N 38°02' E 023°35'0 0.0
2016-Feb-06 23:33N 38°02' E 023°35'0 0.0
2016-Feb-06 22:33N 38°02' E 023°35'0 0.0
2016-Feb-06 21:33N 38°02' E 023°35'0 0.0
2016-Feb-06 20:33N 38°02' E 023°35'0 0.0
2016-Feb-06 19:33N 38°02' E 023°35'0 0.2
2016-Feb-06 18:33N 38°02' E 023°34'1 0.9
2016-Feb-06 17:33N 38°02' E 023°36'0 0.0
2016-Feb-06 16:33N 38°02' E 023°36'0 0.0
2016-Feb-06 15:33N 38°02' E 023°36'1 0.7
2016-Feb-06 14:33N 38°02' E 023°35'0 0.0
2016-Feb-06 13:33N 38°02' E 023°35'0 0.0
2016-Feb-06 12:33N 38°02' E 023°35'0 0.0
2016-Feb-06 11:33N 38°02' E 023°35'0 0.0
2016-Feb-06 10:33N 38°02' E 023°35'0 0.0
2016-Feb-06 09:34N 38°02' E 023°35'0 0.0
2016-Feb-06 08:33N 38°02' E 023°35'0 0.0
2016-Feb-06 07:33N 38°02' E 023°35'0 0.0
2016-Feb-06 06:33N 38°02' E 023°35'2 2.0
2016-Feb-06 05:34N 38°00' E 023°33'3 2.9
2016-Feb-06 04:33N 37°58' E 023°35'0 0.0
2016-Feb-06 03:33N 37°58' E 023°35'1 1.0
2016-Feb-06 02:32N 37°57' E 023°36'0 0.0
2016-Feb-06 01:32N 37°57' E 023°36'0 0.0
2016-Feb-06 00:33N 37°57' E 023°36'0 0.1
2016-Feb-05 23:32N 37°57' E 023°36'1 0.1
2016-Feb-05 11:07N 37°58' E 023°35'3 4.9
2016-Feb-05 10:33N 37°60' E 023°33'2 1.6
2016-Feb-05 09:33N 38°02' E 023°33'3 3.5
2016-Feb-05 08:33N 37°58' E 023°33'2 0.1
2016-Feb-04 10:25N 37°58' E 023°35'5 5.6
2016-Feb-04 09:33N 37°53' E 023°32'0 0.1
2016-Feb-04 08:33N 37°53' E 023°32'1 0.8
2016-Feb-04 07:33N 37°54' E 023°32'  
Track history (hours):
 
Tides and Currents Weather Stations Pressure Air Temp Water Temp Dewpoint Dewpoint Depression Visibility Wind Speed Wind Dir Waves Ship Positions

Maria

Last reported at 2016-Feb-13 19:33 UTC. Time now 2016-Feb-14 12:45 UTC.
Position N 37°57' E 023°35'.

Length 74 m; draft 4.5 m.

Type: Ship. MMSI: 237493000.

Date/timePositionNaut miles runAvg speedWind from/ knotsBaromVisibWave heightAir tempDewpointWater temp
2016-Feb-13 19:33N 37°57' E 023°35'1 0.8
2016-Feb-13 18:33N 37°57' E 023°36'0 0.0
2016-Feb-13 17:33N 37°57' E 023°36'0 0.0
2016-Feb-13 16:33N 37°57' E 023°36'0 0.2
2016-Feb-13 15:33N 37°57' E 023°36'0 0.0
2016-Feb-13 14:33N 37°57' E 023°36'0 0.0
2016-Feb-13 13:33N 37°57' E 023°36'0 0.0
2016-Feb-13 12:33N 37°57' E 023°36'0 0.0
2016-Feb-13 11:33N 37°57' E 023°36'0 0.0
2016-Feb-13 10:33N 37°57' E 023°36'1 1.1
2016-Feb-13 09:33N 37°58' E 023°35'2 0.6
2016-Feb-13 06:33N 37°58' E 023°33'3 3.4
2016-Feb-13 05:33N 38°02' E 023°34'0 0.0
2016-Feb-13 04:33N 38°02' E 023°34'0 0.1
2016-Feb-13 03:33N 38°02' E 023°34'0 0.0
2016-Feb-13 02:33N 38°02' E 023°34'0 0.0
2016-Feb-13 01:33N 38°02' E 023°34'0 0.0
2016-Feb-13 00:34N 38°02' E 023°34'1 1.3
2016-Feb-12 23:34N 38°02' E 023°36'0 0.0
2016-Feb-12 22:33N 38°02' E 023°36'0 0.0
2016-Feb-12 21:33N 38°02' E 023°36'0 0.0
2016-Feb-12 20:34N 38°02' E 023°36'0 0.0
2016-Feb-12 19:33N 38°02' E 023°36'0 0.0
2016-Feb-12 18:33N 38°02' E 023°36'1 0.5
2016-Feb-12 17:31N 38°02' E 023°35'0 0.0
2016-Feb-12 16:33N 38°02' E 023°35'4 4.4
2016-Feb-12 15:33N 37°57' E 023°35'0 0.0
2016-Feb-12 03:03N 37°58' E 023°35'1 1.8
2016-Feb-12 02:33N 37°57' E 023°36'0 0.0
2016-Feb-12 01:33N 37°57' E 023°36'0 0.0
2016-Feb-12 00:33N 37°57' E 023°36'0 0.0
2016-Feb-11 23:33N 37°57' E 023°36'0 0.0
2016-Feb-11 22:33N 37°57' E 023°36'1 0.1
2016-Feb-11 13:14N 37°58' E 023°35'3 4.1
2016-Feb-11 12:33N 38°00' E 023°33'2 1.0
2016-Feb-11 10:08N 38°02' E 023°36'0 0.0
2016-Feb-11 09:33N 38°02' E 023°36'0 0.0
2016-Feb-11 08:33N 38°02' E 023°36'0 0.0
2016-Feb-11 07:33N 38°02' E 023°36'0 0.0
2016-Feb-11 06:33N 38°02' E 023°36'0 0.5
2016-Feb-11 05:33N 38°02' E 023°35'0 0.3
2016-Feb-11 04:33N 38°02' E 023°35'0 0.0
2016-Feb-11 03:33N 38°02' E 023°35'0 0.0
2016-Feb-11 02:33N 38°02' E 023°35'0 0.0
2016-Feb-11 01:31N 38°02' E 023°35'0 0.1
2016-Feb-11 00:33N 38°02' E 023°35'0 0.0
2016-Feb-10 23:33N 38°02' E 023°35'0 0.0
2016-Feb-10 22:33N 38°02' E 023°35'0 0.0
2016-Feb-10 21:33N 38°02' E 023°35'0 0.0
2016-Feb-10 20:33N 38°02' E 023°35'0 0.0
2016-Feb-10 19:33N 38°02' E 023°35'0 0.1
2016-Feb-10 18:33N 38°02' E 023°35'0 0.0
2016-Feb-10 17:33N 38°02' E 023°35'0 0.0
2016-Feb-10 16:33N 38°02' E 023°35'0 0.3
2016-Feb-10 15:33N 38°02' E 023°34'4 1.2
2016-Feb-10 12:15N 37°58' E 023°35'6 8.2
2016-Feb-10 11:33N 37°52' E 023°33'1 0.9
2016-Feb-10 10:33N 37°51' E 023°32'0 0.0
2016-Feb-10 09:33N 37°51' E 023°32'0 0.0
2016-Feb-10 08:33N 37°51' E 023°32'0 0.1
2016-Feb-10 07:34N 37°51' E 023°32'1 0.7
2016-Feb-10 06:33N 37°52' E 023°32'6 5.6
2016-Feb-10 05:34N 37°58' E 023°33'4 4.1
2016-Feb-10 04:33N 38°02' E 023°32'0 0.0
2016-Feb-10 03:33N 38°02' E 023°32'0 0.0
2016-Feb-10 02:33N 38°02' E 023°32'0 0.0
2016-Feb-10 01:33N 38°02' E 023°32'0 0.0
2016-Feb-10 00:34N 38°02' E 023°32'0 0.0
2016-Feb-09 23:33N 38°02' E 023°32'0 0.0
2016-Feb-09 22:34N 38°02' E 023°32'0 0.0
2016-Feb-09 21:34N 38°02' E 023°32'0 0.0
2016-Feb-09 20:33N 38°02' E 023°32'0 0.0
2016-Feb-09 19:33N 38°02' E 023°32'0 0.0
2016-Feb-09 18:33N 38°02' E 023°32'0 0.0
2016-Feb-09 17:33N 38°02' E 023°32'0 0.3
2016-Feb-09 16:33N 38°02' E 023°32'0 0.3
2016-Feb-09 15:33N 38°02' E 023°32'3 2.8
2016-Feb-09 14:34N 38°02' E 023°36'0 0.2
2016-Feb-09 13:33N 38°02' E 023°35'1 0.8
2016-Feb-09 12:33N 38°02' E 023°35'0 0.0
2016-Feb-09 11:33N 38°02' E 023°35'0 0.0
2016-Feb-09 10:33N 38°02' E 023°35'0 0.3
2016-Feb-09 09:33N 38°02' E 023°35'4 4.1
2016-Feb-09 08:33N 37°58' E 023°35'0 0.0
2016-Feb-09 07:33N 37°58' E 023°35'0 0.0
2016-Feb-07 20:25N 37°58' E 023°35'1 1.0
2016-Feb-07 19:33N 37°57' E 023°36'0 0.0
2016-Feb-07 18:33N 37°57' E 023°36'0 0.0
2016-Feb-07 17:33N 37°57' E 023°36'0 0.0
2016-Feb-07 16:33N 37°57' E 023°36'0 0.0
2016-Feb-07 15:33N 37°57' E 023°36'0 0.0
2016-Feb-07 14:33N 37°57' E 023°36'1 0.1
2016-Feb-07 06:05N 37°58' E 023°35'2 4.1
2016-Feb-07 05:33N 37°59' E 023°33'3 3.1
2016-Feb-07 04:33N 38°02' E 023°35'0 0.0
2016-Feb-07 03:33N 38°02' E 023°35'0 0.0
2016-Feb-07 02:33N 38°02' E 023°35'0 0.0
2016-Feb-07 01:33N 38°02' E 023°35'0 0.0
2016-Feb-07 00:34N 38°02' E 023°35'0 0.0
2016-Feb-06 23:33N 38°02' E 023°35'0 0.0
2016-Feb-06 22:33N 38°02' E 023°35'0 0.0
2016-Feb-06 21:33N 38°02' E 023°35'0 0.0
2016-Feb-06 20:33N 38°02' E 023°35'0 0.0
2016-Feb-06 19:33N 38°02' E 023°35'0 0.2
2016-Feb-06 18:33N 38°02' E 023°34'1 0.9
2016-Feb-06 17:33N 38°02' E 023°36'0 0.0
2016-Feb-06 16:33N 38°02' E 023°36'0 0.0
2016-Feb-06 15:33N 38°02' E 023°36'1 0.7
2016-Feb-06 14:33N 38°02' E 023°35'0 0.0
2016-Feb-06 13:33N 38°02' E 023°35'0 0.0
2016-Feb-06 12:33N 38°02' E 023°35'0 0.0
2016-Feb-06 11:33N 38°02' E 023°35'0 0.0
2016-Feb-06 10:33N 38°02' E 023°35'0 0.0
2016-Feb-06 09:34N 38°02' E 023°35'0 0.0
2016-Feb-06 08:33N 38°02' E 023°35'0 0.0
2016-Feb-06 07:33N 38°02' E 023°35'0 0.0
2016-Feb-06 06:33N 38°02' E 023°35'2 2.0
2016-Feb-06 05:34N 38°00' E 023°33'3 2.9
2016-Feb-06 04:33N 37°58' E 023°35'0 0.0
2016-Feb-06 03:33N 37°58' E 023°35'1 1.0
2016-Feb-06 02:32N 37°57' E 023°36'0 0.0
2016-Feb-06 01:32N 37°57' E 023°36'0 0.0
2016-Feb-06 00:33N 37°57' E 023°36'0 0.1
2016-Feb-05 23:32N 37°57' E 023°36'1 0.1
2016-Feb-05 11:07N 37°58' E 023°35'3 4.9
2016-Feb-05 10:33N 37°60' E 023°33'2 1.6
2016-Feb-05 09:33N 38°02' E 023°33'3 3.5
2016-Feb-05 08:33N 37°58' E 023°33'2 0.1
2016-Feb-04 10:25N 37°58' E 023°35'5 5.6
2016-Feb-04 09:33N 37°53' E 023°32'0 0.1
2016-Feb-04 08:33N 37°53' E 023°32'1 0.8
2016-Feb-04 07:33N 37°54' E 023°32'  

Dump ship's entire track history